x

Canaveral 20 Nm East Of Cape Canaveral, Fl (41009) Wave Buoy

1:50pm - Wed 16th Apr 2014 All times are EDT. -4 hours from GMT.

  • Sig Wave height 6.6ft
  • Swell Direction
  • Peak Period 8s
  • Average Period 6s
  • Wind
    18mph, 22mph gusts
  • Sea Temp 74°f
  • Air Temp 71°f
  • Sea Pressure 1019.3mb
  • Canaveral 20 Nm East Of Cape Canaveral, Fl
  • Canaveral 20 Nm East Of Cape Canaveral, Fl

More Historic Weather Station data

Upgrade to MSW Pro to gain access to the past 30 days of data for over 8000 Wavebouys and Weather Stations around the globe.

Join Pro

Comparision Forecast

View Surf forecast
   
Wed 04/16 1:50pm 6.5ft 8s 6s 18 22 mph 1019.3mb 74f 71f
1:20pm  -   -   -  18 22 mph 1019.5mb 73f 71f
12:50pm 6ft 8s 6s 18 22 mph 1019.5mb 73f 71f
12:20pm  -   -   -  18 22 mph 1019.5mb 73f 71f
11:50am 6ft 7s 6s 16 20 mph 1019.6mb 73f 71f
11:20am  -   -   -  13 18 mph 1019.4mb 73f 71f
10:50am 6ft 7s 6s 16 20 mph 1019.1mb 73f 70f
10:20am  -   -   -  16 22 mph 1018.7mb 73f 69f
9:50am 6ft 7s 6s 16 20 mph 1018.1mb 73f 69f
9:20am  -   -   -  16 20 mph 1018mb 73f 68f
8:50am 6ft 7s 5s 18 25 mph 1017.9mb 73f 66f
8:20am  -   -   -  20 27 mph 1017.4mb 73f 66f
7:50am 6.5ft 6s 6s 20 27 mph 1017.4mb 73f 65f
7:20am  -   -   -  22 27 mph 1016.9mb 73f 64f
6:50am 7.5ft 7s 6s 22 29 mph 1016.4mb 73f 64f
6:20am  -   -   -  25 29 mph 1016.1mb 73f 63f
5:50am 8ft 6s 6s 22 29 mph 1016.1mb 73f 63f
5:20am  -   -   -  25 31 mph 1015.5mb 73f 63f
4:50am 7ft 7s 5s 27 34 mph 1015.2mb 73f 63f
4:20am  -   -   -  29 34 mph 1014.9mb 73f 64f
3:50am 6ft 6s 5s 27 31 mph 1014.7mb 74f 64f
3:20am  -   -   -  25 29 mph 1014.4mb 74f 65f
2:50am 5.5ft 8s 5s 25 29 mph 1014mb 74f 66f
2:20am  -   -   -  27 31 mph 1013.5mb 74f 67f
1:50am 4.5ft 4s 5s 25 29 mph 1013.5mb 74f 69f
1:20am  -   -   -  22 25 mph 1013.4mb 74f 69f
12:50am 4.5ft 8s 5s 22 27 mph 1013.4mb 74f 70f
12:20am  -   -   -  20 29 mph 1013.1mb 74f 73f
Tue 04/15 11:50pm 4ft 8s 5s 18 20 mph 1013mb 74f 73f
11:20pm  -   -   -  18 25 mph 1012.9mb 74f 74f
10:50pm 3.5ft 8s 5s 13 16 mph 1012.7mb 74f 75f
10:20pm  -   -   -  9 11 mph 1012.3mb 74f 75f
9:50pm 3.5ft 8s 5s 9 11 mph 1012.2mb 75f 74f
9:20pm  -   -   -  11 13 mph 1011.9mb 75f 74f
8:50pm 4ft 8s 5s 13 16 mph 1011.5mb 76f 74f
8:20pm  -   -   -  16 18 mph 1011.1mb 76f 74f
7:50pm 4.5ft 8s 5s 11 13 mph 1011mb 76f 73f
7:20pm  -   -   -  11 13 mph 1010.1mb 76f 73f
6:50pm 4.5ft 8s 5s 13 16 mph 1009.7mb 76f 72f
6:20pm  -   -   -  11 16 mph 1009.7mb 76f 71f
5:50pm 4ft 8s 5s 7 9 mph 1010.6mb 76f 70f
5:20pm  -   -   -  9 13 mph 1011.7mb 76f 70f
4:50pm 4.5ft 8s 5s 18 20 mph 1011.1mb 76f 70f
4:20pm  -   -   -  20 36 mph 1010.7mb 76f 76f
3:20pm  -   -   -  20 25 mph 1009.8mb 76f 77f
2:50pm 4.5ft 8s 5s 20 27 mph 1010mb 76f 77f
2:20pm  -   -   -  25 27 mph 1010.4mb 76f 77f
1:50pm 4.5ft 8s 5s 22 27 mph 1010.9mb 76f 76f
1:20pm  -   -   -  20 25 mph 1011.6mb 76f 76f
12:50pm 4ft 8s 5s 20 25 mph 1011.7mb 76f 76f
12:20pm  -   -   -  20 25 mph 1011.9mb 76f 76f
11:50am 3.5ft 8s 5s 20 25 mph 1012.2mb 76f 76f
11:20am  -   -   -  20 25 mph 1012.7mb 76f 75f
10:50am 3.5ft 8s 5s 20 25 mph 1012.8mb 76f 75f
10:20am  -   -   -  20 25 mph 1012.5mb 76f 75f
9:50am 3.5ft 8s 5s 20 25 mph 1012.3mb 76f 75f
9:20am  -   -   -  18 22 mph 1012.5mb 76f 75f
8:50am 4ft 8s 5s 16 18 mph 1012.6mb 76f 75f
8:20am  -   -   -  16 18 mph 1012.6mb 76f 75f
7:50am 3.5ft 8s 5s 16 18 mph 1012.6mb 76f 75f
7:20am  -   -   -  16 18 mph 1012.5mb 76f 74f
6:50am 4ft 8s 5s 16 20 mph 1012.4mb 76f 75f
6:20am  -   -   -  13 18 mph 1012.5mb 76f 74f
5:50am 4.5ft 8s 5s 13 16 mph 1012.4mb 76f 74f
5:20am  -   -   -  13 16 mph 1012.1mb 76f 75f
4:50am 4.5ft 8s 5s 13 16 mph 1012.4mb 76f 75f
4:20am  -   -   -  16 18 mph 1012.5mb 76f 75f
3:50am 4.5ft 8s 5s 16 20 mph 1012.5mb 76f 75f
3:20am  -   -   -  18 22 mph 1012.5mb 76f 76f
2:50am 4.5ft 8s 5s 20 22 mph 1012.4mb 76f 76f
2:20am  -   -   -  20 25 mph 1012.3mb 76f 76f
1:50am 4.5ft 8s 5s 20 22 mph 1012.5mb 76f 76f
1:20am  -   -   -  18 22 mph 1012.8mb 76f 76f
12:50am 4.5ft 8s 5s 18 22 mph 1012.8mb 76f 76f
12:20am  -   -   -  18 22 mph 1012.9mb 76f 77f
Mon 04/14 11:50pm 4.5ft 8s 5s 18 22 mph 1012.9mb 76f 77f
11:20pm  -   -   -  20 22 mph 1013mb 76f 77f
10:50pm 4.5ft 8s 5s 18 22 mph 1013.1mb 77f 77f
10:20pm  -   -   -  20 22 mph 1013.1mb 77f 77f
9:50pm 4.5ft 8s 5s 18 22 mph 1013.1mb 77f 77f
9:20pm  -   -   -  20 22 mph 1012.8mb 77f 77f
8:50pm 4.5ft 8s 5s 18 22 mph 1012.8mb 77f 77f
8:20pm  -   -   -  18 20 mph 1012.6mb 77f 77f
7:50pm 4.5ft 8s 5s 18 20 mph 1012.6mb 77f 77f
7:20pm  -   -   -  16 18 mph 1012.7mb 77f 77f
6:50pm 4.5ft 8s 6s 16 18 mph 1012.8mb 77f 77f
6:20pm  -   -   -  16 18 mph 1013mb 77f 77f
5:50pm 4.5ft 8s 6s 16 18 mph 1013.1mb 77f 77f
5:20pm  -   -   -  16 18 mph 1013.2mb 77f 77f
4:50pm 4.5ft 9s 6s 16 18 mph 1013.5mb 77f 77f
4:20pm  -   -   -  13 18 mph 1013.8mb 77f 77f
3:50pm 4.5ft 8s 6s 16 18 mph 1014.2mb 77f 77f
3:20pm  -   -   -  13 16 mph 1014.6mb 77f 77f
2:50pm 5ft 8s 6s 11 13 mph 1015.2mb 77f 76f
2:20pm  -   -   -  13
mph
1015.5mb 77f 76f
1:50pm 5ft 8s 6s 13 16 mph 1015.7mb 77f 76f
1:20pm  -   -   -  13 16 mph 1015.8mb 77f 76f
12:50pm 5ft 8s 6s 13 16 mph 1016.2mb 77f 76f
12:20pm  -   -   -  11 13 mph 1016.2mb 77f 76f
11:50am 5ft 8s 6s 13 16 mph 1016.4mb 76f 76f
11:20am  -   -   -  13 16 mph 1016.6mb 76f 76f
10:50am 5.5ft 8s 6s 16 18 mph 1016.5mb 76f 75f
10:20am  -   -   -  9 13 mph 1016.5mb 76f 73f
9:50am 5ft 8s 6s 16 18 mph 1016.4mb 76f 76f
9:20am  -   -   -  13 18 mph 1016.2mb 76f 76f
8:50am 5ft 8s 5s 16 18 mph 1016.1mb 76f 76f
8:20am  -   -   -  16 18 mph 1015.9mb 76f 76f
7:50am 4.5ft 8s 5s 16 20 mph 1015.7mb 76f 75f
7:20am  -   -   -  16 18 mph 1015.5mb 76f 75f
6:50am 4.5ft 8s 5s 18 20 mph 1015.2mb 76f 75f
6:20am  -   -   -  18 20 mph 1015.3mb 76f 75f
5:50am 4.5ft 8s 5s 18 22 mph 1015.1mb 76f 75f
5:20am  -   -   -  18 20 mph 1015.2mb 76f 75f
4:50am 5ft 8s 5s 18 20 mph 1015.2mb 75f 75f
4:20am  -   -   -  16 20 mph 1015.6mb 75f 75f
3:50am 4.5ft 8s 5s 18 20 mph 1015.7mb 75f 75f
3:20am  -   -   -  18 20 mph 1015.9mb 75f 75f
2:50am 4.5ft 8s 5s 18 20 mph 1016.2mb 75f 75f
2:20am  -   -   -  18 22 mph 1016.6mb 75f 75f
1:50am 4.5ft 8s 5s 18 20 mph 1017.1mb 75f 75f
1:20am  -   -   -  16 20 mph 1017.5mb 75f 75f
12:50am 4.5ft 6s 5s 16 20 mph 1017.7mb 75f 75f
12:20am  -   -   -  13 18 mph 1018mb 74f 75f
Sun 04/13 11:50pm 5ft 5s 5s 13 18 mph 1017.9mb 74f 75f
11:20pm  -   -   -  16 20 mph 1017.9mb 74f 75f
10:50pm 5ft 8s 5s 18 20 mph 1018mb 74f 74f
10:20pm  -   -   -  16 20 mph 1018.2mb 74f 74f
9:50pm 5ft 8s 5s 16 18 mph 1018.2mb 74f 74f
9:20pm  -   -   -  18 22 mph 1018.1mb 74f 74f
8:50pm 5ft 8s 5s 18 20 mph 1018.1mb 74f 74f
7:50pm 4.5ft 8s 5s 18 22 mph 1017.8mb 74f 74f
7:20pm  -   -   -  18 22 mph 1017.9mb 74f 75f
6:50pm 4.5ft 7s 5s 18 20 mph 1018mb 74f 75f
6:20pm  -   -   -  18 20 mph 1017.9mb 74f 75f
5:50pm 4.5ft 6s 5s 18 20 mph 1018.1mb 74f 75f
5:20pm  -   -   -  16 20 mph 1018.2mb 74f 75f
4:50pm 4ft 8s 5s 18 20 mph 1018.4mb 74f 75f
4:20pm  -   -   -  16 18 mph 1018.6mb 74f 75f
3:50pm 4.5ft 8s 5s 16 18 mph 1018.9mb 75f 75f
2:50pm 4.5ft 6s 5s 13 16 mph 1019.8mb 75f 75f
2:20pm  -   -   -  16 18 mph 1020mb 75f 74f
1:50pm 4.5ft 8s 5s 13 16 mph 1020.4mb 74f 74f
1:20pm  -   -   -  13 16 mph 1020.6mb 74f 74f
12:50pm 5ft 6s 5s 16 18 mph 1020.8mb 74f 74f
12:20pm  -   -   -  16 20 mph 1021mb 74f 74f
11:50am 5ft 6s 5s 16 20 mph 1021.3mb 74f 74f
11:20am  -   -   -  18 20 mph 1021.5mb 74f 74f
10:50am 5.5ft 6s 5s 18 22 mph 1021.5mb 74f 74f
10:20am  -   -   -  18 20 mph 1021.4mb 74f 74f
9:50am 5ft 8s 5s 18 22 mph 1021.1mb 74f 74f
9:20am  -   -   -  18 20 mph 1020.8mb 74f 74f
8:50am 5ft 8s 5s 18 22 mph 1020.6mb 73f 74f
8:20am  -   -   -  18 20 mph 1020.6mb 73f 74f
7:50am 5ft 5s 5s 18 20 mph 1020.2mb 73f 73f
7:20am  -   -   -  18 20 mph 1020mb 74f 73f
6:50am 5ft 7s 5s 18 20 mph 1019.9mb 74f 73f
6:20am  -   -   -  18 20 mph 1019.6mb 74f 73f
5:50am 5ft 6s 5s 18 20 mph 1019.4mb 74f 73f
5:20am  -   -   -  16 20 mph 1019.4mb 74f 73f
4:50am 5ft 6s 5s 18 20 mph 1019.4mb 74f 73f
4:20am  -   -   -  18 20 mph 1019.6mb 74f 73f
3:50am 5ft 6s 5s 18 20 mph 1019.6mb 74f 74f
3:20am  -   -   -  18 22 mph 1019.7mb 74f 74f
2:50am 5ft 6s 5s 18 20 mph 1019.8mb 74f 74f
2:20am  -   -   -  18 22 mph 1019.8mb 74f 74f
1:50am 5ft 8s 5s 20 25 mph 1020mb 74f 73f
1:20am  -   -   -  18 22 mph 1020.5mb 74f 72f
12:50am 5ft 6s 5s 20 25 mph 1020.4mb 74f 73f
12:20am  -   -   -  20 25 mph 1020.7mb 74f 74f
Sat 04/12 11:50pm 4.5ft 5s 5s 20 25 mph 1020.8mb 75f 74f
11:20pm  -   -   -  18 22 mph 1020.8mb 75f 74f
10:50pm 3.5ft 8s 5s 18 22 mph 1021.1mb 75f 74f
10:20pm  -   -   -  18 22 mph 1021.1mb 75f 74f
9:50pm 3.5ft 6s 5s 18 22 mph 1021mb 75f 74f
9:20pm  -   -   -  16 18 mph 1021mb 75f 74f
8:20pm  -   -   -  16 18 mph 1020.9mb 75f 74f
7:50pm 3ft 7s 4s 16 18 mph 1020.7mb 75f 74f
7:20pm  -   -   -  18 20 mph 1020.7mb 76f 74f